Time;durP1;ratioP1;P1;durP2;ratioP2;P2;SDS_P1;SDS_P2;PMS_P1;PMS_P2;Temp;Humidity;BMP_temperature;BMP_pressure;BME280_temperature;BME280_humidity;BME280_pressure;Samples;Min_cycle;Max_cycle;Signal;HPM_P1;HPM_P2
2022/05/12 00:01:24;;;;;;;3.77;0.93;;;9.00;81.80;;;;;;4821621;29;20508;-69
2022/05/12 00:03:50;;;;;;;3.97;0.77;;;8.90;81.80;;;;;;4813616;29;20046;-69
2022/05/12 00:06:15;;;;;;;3.13;1.20;;;8.90;82.00;;;;;;4820264;29;20055;-69
2022/05/12 00:08:41;;;;;;;5.20;1.23;;;8.80;82.00;;;;;;4841147;29;20047;-69
2022/05/12 00:11:07;;;;;;;5.00;1.20;;;8.80;82.10;;;;;;4831297;29;20078;-69
2022/05/12 00:13:33;;;;;;;3.70;0.90;;;8.80;82.20;;;;;;4823985;29;20050;-69
2022/05/12 00:15:59;;;;;;;4.53;0.98;;;8.80;82.30;;;;;;4837165;29;20065;-69
2022/05/12 00:18:26;;;;;;;2.10;1.00;;;8.70;82.50;;;;;;4832371;29;20060;-69
2022/05/12 00:20:52;;;;;;;4.95;1.40;;;8.70;82.60;;;;;;4845017;29;20057;-68
2022/05/12 00:23:26;;;;;;;2.85;1.10;;;8.70;82.60;;;;;;4834589;29;20046;-68
2022/05/12 00:25:53;;;;;;;5.43;1.20;;;8.70;82.40;;;;;;4803614;29;20121;-68
2022/05/12 00:28:22;;;;;;;4.10;1.13;;;8.60;82.70;;;;;;4825519;29;20046;-69
2022/05/12 00:30:50;;;;;;;3.50;1.20;;;8.60;82.80;;;;;;4849771;29;20046;-68
2022/05/12 00:33:17;;;;;;;6.10;1.58;;;8.70;83.10;;;;;;4817034;29;20272;-68
2022/05/12 00:35:44;;;;;;;5.30;3.72;;;8.60;83.00;;;;;;4808958;29;20057;-68
2022/05/12 00:38:11;;;;;;;5.60;1.42;;;8.60;82.80;;;;;;4847296;29;20058;-69
2022/05/12 00:40:43;;;;;;;4.03;1.33;;;8.60;82.80;;;;;;4825768;29;20050;-69
2022/05/12 00:43:31;;;;;;;5.63;1.20;;;8.60;82.70;;;;;;4847574;29;20500;-69
2022/05/12 00:45:57;;;;;;;4.07;1.48;;;8.60;82.70;;;;;;4842598;29;20050;-69
2022/05/12 00:48:23;;;;;;;6.90;2.17;;;8.50;82.60;;;;;;4818658;29;20094;-69
2022/05/12 00:50:49;;;;;;;3.67;1.70;;;8.50;82.80;;;;;;4813385;29;20326;-69
2022/05/12 00:53:15;;;;;;;6.32;2.50;;;8.40;82.80;;;;;;4850213;29;20052;-69
2022/05/12 00:55:44;;;;;;;5.65;2.47;;;8.40;82.70;;;;;;4810853;29;20054;-69
2022/05/12 00:58:13;;;;;;;3.53;2.10;;;8.40;83.10;;;;;;4821381;29;20641;-69
2022/05/12 01:00:40;;;;;;;6.47;2.63;;;8.30;83.50;;;;;;4826205;29;20050;-69
2022/05/12 01:03:19;;;;;;;7.25;2.63;;;8.30;83.20;;;;;;4862669;29;20564;-69
2022/05/12 01:05:46;;;;;;;5.40;2.40;;;8.30;83.30;;;;;;4846625;29;20133;-69
2022/05/12 01:08:15;;;;;;;6.70;2.70;;;8.30;83.70;;;;;;4828120;29;20113;-69
2022/05/12 01:10:43;;;;;;;9.55;2.88;;;8.20;84.00;;;;;;4847072;29;20512;-69
2022/05/12 01:13:09;;;;;;;7.57;2.97;;;8.20;83.90;;;;;;4832243;29;20054;-69
2022/05/12 01:15:34;;;;;;;6.67;3.23;;;8.20;84.50;;;;;;4812468;29;20062;-69
2022/05/12 01:18:10;;;;;;;5.33;2.63;;;8.20;84.70;;;;;;4846638;29;20588;-69
2022/05/12 01:20:39;;;;;;;10.23;3.00;;;8.20;84.90;;;;;;4840661;29;20128;-69
2022/05/12 01:23:23;;;;;;;9.55;3.10;;;8.20;85.00;;;;;;4822316;29;20054;-69
2022/05/12 01:25:50;;;;;;;8.20;2.92;;;8.20;85.40;;;;;;4839193;29;20064;-69
2022/05/12 01:28:15;;;;;;;7.43;3.10;;;8.10;85.30;;;;;;4842691;29;20082;-69
2022/05/12 01:30:41;;;;;;;12.83;3.70;;;8.10;85.10;;;;;;4846930;29;20042;-69
2022/05/12 01:33:07;;;;;;;9.13;2.93;;;8.10;86.20;;;;;;4816511;29;20129;-69
2022/05/12 01:35:33;;;;;;;11.03;3.60;;;8.10;86.20;;;;;;4816539;29;20047;-69
2022/05/12 01:37:59;;;;;;;9.87;3.67;;;8.20;86.60;;;;;;4792170;29;20054;-69
2022/05/12 01:40:26;;;;;;;11.57;3.80;;;8.10;86.40;;;;;;4828738;29;20054;-69
2022/05/12 01:42:53;;;;;;;9.35;3.70;;;8.20;86.70;;;;;;4858054;29;20054;-69
2022/05/12 01:45:20;;;;;;;11.35;3.67;;;8.10;86.30;;;;;;4857964;29;20125;-69
2022/05/12 01:47:47;;;;;;;12.82;3.67;;;8.10;86.60;;;;;;4856708;29;20477;-69
2022/05/12 01:50:14;;;;;;;10.48;4.10;;;8.10;87.00;;;;;;4855460;29;20042;-69
2022/05/12 01:52:44;;;;;;;10.60;3.80;;;8.10;87.30;;;;;;4845722;29;20057;-69
2022/05/12 01:55:15;;;;;;;9.75;4.20;;;8.10;87.10;;;;;;4827218;29;20086;-69
2022/05/12 01:57:43;;;;;;;7.45;3.53;;;8.10;87.30;;;;;;4835442;29;20137;-69
2022/05/12 02:00:12;;;;;;;11.55;4.28;;;8.10;87.30;;;;;;4816020;29;20042;-69
2022/05/12 02:02:38;;;;;;;9.15;3.78;;;8.10;87.30;;;;;;4813643;29;20102;-69
2022/05/12 02:05:09;;;;;;;17.02;4.00;;;8.00;87.10;;;;;;4830476;29;20582;-69
2022/05/12 02:07:36;;;;;;;9.30;3.90;;;8.00;86.90;;;;;;4858213;29;20049;-69
2022/05/12 02:10:04;;;;;;;9.38;3.75;;;8.00;86.90;;;;;;4847425;29;20307;-69
2022/05/12 02:12:30;;;;;;;11.93;4.20;;;8.00;86.90;;;;;;4855886;29;20058;-69
2022/05/12 02:14:55;;;;;;;10.23;4.03;;;7.90;87.40;;;;;;4827908;29;20070;-69
2022/05/12 02:17:21;;;;;;;10.57;4.27;;;7.90;87.50;;;;;;4834078;29;20419;-69
2022/05/12 02:19:47;;;;;;;13.07;4.50;;;7.90;87.50;;;;;;4827428;29;20056;-69
2022/05/12 02:22:13;;;;;;;15.47;4.63;;;7.90;87.80;;;;;;4838432;29;20100;-69
2022/05/12 02:24:38;;;;;;;12.33;4.90;;;7.90;88.10;;;;;;4828157;29;20046;-69
2022/05/12 02:27:04;;;;;;;11.20;4.33;;;7.90;88.10;;;;;;4819918;29;20469;-69
2022/05/12 02:29:30;;;;;;;14.67;4.87;;;7.90;88.20;;;;;;4815183;29;20050;-69
2022/05/12 02:31:55;;;;;;;14.43;5.23;;;7.90;88.40;;;;;;4808990;29;20057;-69
2022/05/12 02:34:21;;;;;;;12.77;4.83;;;7.80;88.30;;;;;;4830630;29;20129;-69
2022/05/12 02:36:59;;;;;;;9.97;5.23;;;7.80;88.00;;;;;;4838083;29;20511;-69
2022/05/12 02:39:38;;;;;;;13.10;5.70;;;7.80;88.50;;;;;;4829893;29;20137;-69
2022/05/12 02:42:06;;;;;;;12.75;5.32;;;7.90;89.00;;;;;;4846228;29;20055;-69
2022/05/12 02:44:32;;;;;;;17.55;5.97;;;7.90;89.10;;;;;;4832252;29;20050;-69
2022/05/12 02:46:58;;;;;;;17.23;6.38;;;7.90;89.30;;;;;;4838368;29;20046;-69
2022/05/12 02:49:24;;;;;;;16.63;6.83;;;8.00;89.20;;;;;;4803922;29;20049;-69
2022/05/12 02:51:50;;;;;;;16.43;6.67;;;7.90;89.20;;;;;;4850031;29;20054;-69
2022/05/12 02:54:17;;;;;;;16.33;6.70;;;7.90;89.10;;;;;;4844059;29;20042;-69
2022/05/12 02:56:43;;;;;;;15.40;6.43;;;7.90;89.10;;;;;;4851230;29;20034;-69
2022/05/12 02:59:10;;;;;;;12.87;6.50;;;7.90;89.40;;;;;;4817770;29;20115;-69
2022/05/12 03:01:36;;;;;;;20.23;8.00;;;7.90;89.40;;;;;;4860313;29;20057;-69
2022/05/12 03:04:01;;;;;;;13.80;6.78;;;7.90;89.70;;;;;;4858509;29;20050;-69
2022/05/12 03:06:27;;;;;;;18.97;7.40;;;7.90;89.90;;;;;;4861678;29;20045;-69
2022/05/12 03:08:53;;;;;;;12.50;6.40;;;7.90;89.90;;;;;;4849280;29;20404;-69
2022/05/12 03:11:20;;;;;;;15.20;7.10;;;7.90;89.90;;;;;;4825442;29;20451;-69
2022/05/12 03:13:48;;;;;;;18.30;7.78;;;7.90;89.90;;;;;;4837244;29;20121;-69
2022/05/12 03:16:16;;;;;;;16.38;7.00;;;7.80;89.90;;;;;;4825718;29;20061;-69
2022/05/12 03:18:44;;;;;;;16.50;6.63;;;7.90;90.10;;;;;;4854591;29;20039;-69
2022/05/12 03:21:09;;;;;;;15.88;6.55;;;7.80;90.00;;;;;;4853302;29;20054;-69
2022/05/12 03:23:35;;;;;;;15.13;6.67;;;7.80;90.10;;;;;;4830415;29;20042;-69
2022/05/12 03:26:01;;;;;;;12.60;6.33;;;7.80;90.10;;;;;;4848748;29;20058;-69
2022/05/12 03:28:27;;;;;;;16.03;7.13;;;7.80;90.20;;;;;;4822790;29;20053;-69
2022/05/12 03:30:53;;;;;;;17.80;7.60;;;7.80;90.20;;;;;;4822080;29;20519;-69
2022/05/12 03:33:19;;;;;;;15.07;6.93;;;7.80;90.40;;;;;;4851872;29;20054;-69
2022/05/12 03:35:45;;;;;;;14.17;6.47;;;7.80;90.30;;;;;;4836298;29;20061;-69
2022/05/12 03:38:11;;;;;;;14.82;6.07;;;7.80;90.20;;;;;;4820522;29;20053;-69
2022/05/12 03:40:37;;;;;;;11.80;6.20;;;7.80;90.00;;;;;;4814057;29;20488;-69
2022/05/12 03:43:03;;;;;;;12.67;5.97;;;7.70;89.80;;;;;;4834803;29;20435;-69
2022/05/12 03:45:30;;;;;;;10.53;5.17;;;7.70;89.70;;;;;;4831681;29;20057;-69
2022/05/12 03:47:57;;;;;;;9.60;5.65;;;7.70;89.50;;;;;;4841481;29;20053;-69
2022/05/12 03:50:25;;;;;;;13.80;6.40;;;7.60;89.50;;;;;;4832674;29;20050;-69
2022/05/12 03:52:53;;;;;;;19.08;6.38;;;7.60;89.40;;;;;;4836868;29;20045;-69
2022/05/12 03:55:22;;;;;;;10.77;6.32;;;7.70;89.40;;;;;;4851531;29;20054;-69
2022/05/12 03:57:51;;;;;;;11.77;6.28;;;7.70;89.30;;;;;;4815159;29;20546;-69
2022/05/12 04:00:28;;;;;;;14.43;6.57;;;7.70;89.30;;;;;;4841592;29;20050;-69
2022/05/12 04:02:54;;;;;;;21.20;6.63;;;7.70;89.30;;;;;;4807447;29;20134;-69
2022/05/12 04:05:20;;;;;;;11.03;6.90;;;7.70;89.30;;;;;;4827054;29;20125;-69
2022/05/12 04:07:46;;;;;;;15.43;7.03;;;7.70;89.20;;;;;;4818467;29;20517;-69
2022/05/12 04:10:14;;;;;;;14.90;7.32;;;7.70;89.30;;;;;;4819322;29;20050;-69
2022/05/12 04:12:40;;;;;;;15.73;6.93;;;7.80;89.30;;;;;;4840312;29;20401;-69
2022/05/12 04:15:08;;;;;;;17.67;7.18;;;7.80;89.60;;;;;;4853252;29;20424;-69
2022/05/12 04:17:34;;;;;;;15.40;7.60;;;7.80;89.60;;;;;;4851634;29;20050;-70
2022/05/12 04:20:12;;;;;;;20.05;6.68;;;7.90;89.80;;;;;;4827311;29;20566;-69
2022/05/12 04:22:43;;;;;;;13.93;7.60;;;8.00;89.70;;;;;;4809615;29;20047;-69
2022/05/12 04:25:09;;;;;;;16.38;6.93;;;8.00;89.80;;;;;;4825267;29;20085;-69
2022/05/12 04:27:36;;;;;;;21.58;6.85;;;8.10;90.00;;;;;;4818596;29;20562;-69
2022/05/12 04:30:03;;;;;;;18.33;6.90;;;8.10;90.00;;;;;;4807930;29;20125;-69
2022/05/12 04:32:28;;;;;;;13.35;6.72;;;8.20;90.20;;;;;;4841932;29;20083;-70
2022/05/12 04:35:12;;;;;;;15.97;6.77;;;8.20;90.50;;;;;;4826075;29;20479;-70
2022/05/12 04:38:05;;;;;;;16.80;7.10;;;8.30;90.40;;;;;;4817017;29;20050;-70
2022/05/12 04:40:31;;;;;;;17.58;7.40;;;8.30;90.40;;;;;;4824254;29;20141;-70
2022/05/12 04:42:59;;;;;;;17.20;7.05;;;8.40;90.30;;;;;;4816154;29;20297;-70
2022/05/12 04:45:27;;;;;;;14.93;6.55;;;8.40;90.30;;;;;;4812064;29;20089;-70
2022/05/12 04:47:53;;;;;;;14.48;5.70;;;8.50;90.20;;;;;;4858041;29;20061;-70
2022/05/12 04:50:22;;;;;;;15.00;5.93;;;8.50;90.10;;;;;;4822508;29;20106;-69
2022/05/12 04:52:48;;;;;;;14.93;6.13;;;8.60;90.30;;;;;;4843742;29;20085;-69
2022/05/12 04:55:15;;;;;;;13.23;6.20;;;8.70;90.20;;;;;;4814889;29;21642;-70
2022/05/12 04:57:43;;;;;;;17.30;6.35;;;8.80;90.20;;;;;;4849215;29;20141;-70
2022/05/12 05:00:16;;;;;;;11.55;6.35;;;8.90;90.10;;;;;;4843765;29;20046;-70
2022/05/12 05:02:42;;;;;;;12.63;5.50;;;9.10;89.90;;;;;;4806333;29;20102;-70
2022/05/12 05:05:09;;;;;;;17.17;5.30;;;9.20;89.70;;;;;;4848614;29;20039;-70
2022/05/12 05:07:34;;;;;;;11.73;5.97;;;9.40;89.50;;;;;;4844769;29;20125;-70
2022/05/12 05:10:00;;;;;;;11.23;5.63;;;9.60;89.10;;;;;;4815270;29;20590;-70
2022/05/12 05:12:26;;;;;;;10.27;5.77;;;10.20;89.30;;;;;;4826745;29;20563;-70
2022/05/12 05:14:52;;;;;;;12.57;5.10;;;11.20;88.80;;;;;;4832351;29;20151;-70
2022/05/12 05:17:18;;;;;;;14.60;4.63;;;12.20;85.80;;;;;;4817834;29;20061;-70
2022/05/12 05:19:44;;;;;;;10.93;4.60;;;13.10;82.00;;;;;;4817414;29;20300;-70
2022/05/12 05:22:10;;;;;;;14.23;4.68;;;13.80;78.70;;;;;;4849891;29;20050;-70
2022/05/12 05:24:36;;;;;;;11.07;4.13;;;14.30;76.50;;;;;;4817308;29;20044;-70
2022/05/12 05:27:03;;;;;;;11.50;3.97;;;14.60;73.10;;;;;;4821360;29;20329;-70
2022/05/12 05:29:29;;;;;;;11.88;3.80;;;15.00;72.70;;;;;;4823266;29;20042;-70
2022/05/12 05:31:55;;;;;;;7.27;3.27;;;15.30;71.10;;;;;;4817317;29;20397;-70
2022/05/12 05:34:21;;;;;;;8.70;3.13;;;15.50;69.80;;;;;;4849029;29;20066;-70
2022/05/12 05:36:46;;;;;;;10.20;3.13;;;15.70;69.30;;;;;;4835569;29;20355;-70
2022/05/12 05:39:23;;;;;;;8.90;3.00;;;16.00;69.80;;;;;;4834248;29;20067;-70
2022/05/12 05:41:52;;;;;;;10.23;3.13;;;16.30;68.60;;;;;;4829390;29;20418;-70
2022/05/12 05:44:17;;;;;;;8.27;2.80;;;16.60;67.80;;;;;;4847109;29;20300;-70
2022/05/12 05:46:44;;;;;;;5.73;2.57;;;16.70;66.90;;;;;;4848990;29;20750;-70
2022/05/12 05:49:09;;;;;;;11.43;3.53;;;16.80;66.20;;;;;;4847614;29;20055;-70
2022/05/12 05:54:19;;;;;;;7.30;3.00;;;16.70;65.40;;;;;;4843342;29;20089;-70
2022/05/12 05:56:47;;;;;;;7.97;2.97;;;16.90;65.40;;;;;;4830444;29;20287;-70
2022/05/12 05:59:13;;;;;;;9.57;2.63;;;16.80;65.10;;;;;;4823789;29;20343;-70
2022/05/12 06:01:39;;;;;;;12.47;3.57;;;17.10;65.10;;;;;;4818799;29;20498;-70
2022/05/12 06:04:05;;;;;;;13.53;3.30;;;17.20;64.10;;;;;;4851993;29;20294;-71
2022/05/12 06:06:30;;;;;;;13.17;2.87;;;17.30;64.00;;;;;;4837154;29;20073;-70
2022/05/12 06:08:56;;;;;;;12.70;4.40;;;17.10;64.00;;;;;;4833372;29;20285;-70
2022/05/12 06:11:22;;;;;;;9.23;3.10;;;16.80;63.60;;;;;;4846106;29;20057;-70
2022/05/12 06:13:48;;;;;;;10.67;3.70;;;16.40;64.90;;;;;;4835656;29;20034;-70
2022/05/12 06:16:14;;;;;;;10.33;3.93;;;16.70;65.10;;;;;;4827974;29;20085;-70
2022/05/12 06:18:41;;;;;;;14.20;4.03;;;16.90;64.70;;;;;;4834672;29;20323;-70
2022/05/12 06:21:12;;;;;;;13.93;3.37;;;16.50;64.20;;;;;;4805438;29;20057;-70
2022/05/12 06:23:41;;;;;;;11.63;3.50;;;16.80;64.00;;;;;;4845722;29;20311;-70
2022/05/12 06:26:13;;;;;;;13.40;3.30;;;16.70;63.90;;;;;;4849082;29;20318;-70
2022/05/12 06:28:41;;;;;;;13.73;3.57;;;16.60;64.30;;;;;;4829773;29;20284;-70
2022/05/12 06:31:07;;;;;;;13.57;3.60;;;16.60;64.60;;;;;;4842951;29;20322;-70
2022/05/12 06:33:33;;;;;;;11.80;2.93;;;17.00;64.30;;;;;;4861011;29;20748;-70
2022/05/12 06:36:03;;;;;;;13.87;2.87;;;17.00;63.30;;;;;;4836792;29;20050;-70
2022/05/12 06:38:29;;;;;;;10.93;2.97;;;17.20;63.10;;;;;;4819114;29;20065;-70
2022/05/12 06:40:55;;;;;;;8.33;2.67;;;17.30;62.30;;;;;;4814368;29;20438;-70
2022/05/12 06:43:23;;;;;;;17.27;3.47;;;17.20;61.30;;;;;;4862084;29;20050;-70
2022/05/12 06:45:49;;;;;;;11.70;2.90;;;17.10;61.60;;;;;;4835757;29;20513;-70
2022/05/12 06:48:15;;;;;;;14.97;5.60;;;16.90;61.60;;;;;;4848975;29;20356;-70
2022/05/12 06:50:41;;;;;;;12.50;3.17;;;16.70;61.80;;;;;;4849904;29;20291;-70
2022/05/12 06:53:08;;;;;;;15.90;5.17;;;16.30;63.20;;;;;;4849339;29;20339;-70
2022/05/12 06:55:34;;;;;;;9.53;3.00;;;15.80;62.90;;;;;;4844561;29;20327;-70
2022/05/12 06:58:00;;;;;;;11.07;3.20;;;15.60;64.80;;;;;;4834752;29;20334;-70
2022/05/12 07:00:26;;;;;;;10.17;2.90;;;15.70;64.80;;;;;;4834512;29;20042;-70
2022/05/12 07:02:52;;;;;;;12.63;3.37;;;15.30;65.40;;;;;;4850176;29;20392;-70
2022/05/12 07:05:22;;;;;;;17.20;3.77;;;14.80;66.60;;;;;;4824929;29;20512;-70
2022/05/12 07:07:49;;;;;;;16.80;3.87;;;14.40;67.90;;;;;;4845495;29;20644;-70
2022/05/12 07:10:16;;;;;;;8.90;2.90;;;14.10;69.20;;;;;;4834322;29;20290;-70
2022/05/12 07:12:42;;;;;;;12.57;3.07;;;14.00;69.50;;;;;;4850777;29;20318;-70
2022/05/12 07:15:09;;;;;;;11.57;3.53;;;13.90;69.60;;;;;;4864452;29;20310;-70
2022/05/12 07:17:37;;;;;;;11.23;3.13;;;13.80;69.90;;;;;;4840079;29;20299;-70
2022/05/12 07:28:20;;;;;;;8.40;2.40;;;13.90;69.90;;;;;;4850806;29;20047;-70
2022/05/12 07:31:01;;;;;;;8.47;2.40;;;13.90;70.70;;;;;;4825263;29;20299;-69
2022/05/12 07:33:31;;;;;;;18.13;3.00;;;14.00;69.90;;;;;;4838461;29;20525;-70
2022/05/12 07:36:07;;;;;;;10.03;2.90;;;14.10;69.70;;;;;;4856163;29;20418;-70
2022/05/12 07:38:33;;;;;;;8.03;2.67;;;14.10;69.50;;;;;;4859423;29;20793;-70
2022/05/12 07:40:59;;;;;;;15.73;3.93;;;14.20;69.10;;;;;;4815100;29;20287;-70
2022/05/12 07:43:25;;;;;;;11.67;2.37;;;14.10;68.40;;;;;;4834255;29;20077;-70
2022/05/12 07:45:50;;;;;;;10.60;2.80;;;14.20;68.70;;;;;;4865770;29;20145;-70
2022/05/12 07:48:17;;;;;;;9.83;2.53;;;14.20;67.90;;;;;;4834737;29;20045;-70
2022/05/12 07:50:42;;;;;;;11.23;4.27;;;14.20;68.00;;;;;;4865027;29;20099;-70
2022/05/12 07:53:09;;;;;;;9.40;2.27;;;14.20;67.60;;;;;;4849772;29;20803;-70
2022/05/12 07:55:35;;;;;;;9.50;2.73;;;14.30;67.80;;;;;;4865893;29;20077;-70
2022/05/12 07:58:03;;;;;;;9.53;2.70;;;14.40;67.20;;;;;;4850424;29;20363;-70
2022/05/12 08:00:30;;;;;;;8.50;2.37;;;14.50;67.30;;;;;;4822342;29;20296;-70
2022/05/12 08:02:57;;;;;;;12.30;2.87;;;14.50;66.90;;;;;;4859020;29;20877;-70
2022/05/12 08:05:24;;;;;;;11.93;2.67;;;14.50;65.70;;;;;;4818922;29;20563;-70
2022/05/12 08:07:50;;;;;;;13.27;2.93;;;14.50;65.90;;;;;;4844464;29;20291;-70
2022/05/12 08:10:16;;;;;;;8.07;2.27;;;14.50;64.40;;;;;;4832563;29;20291;-70
2022/05/12 08:12:42;;;;;;;10.73;2.50;;;14.70;65.60;;;;;;4850677;29;20042;-70
2022/05/12 08:15:09;;;;;;;8.90;3.63;;;14.80;66.10;;;;;;4838444;29;20316;-70
2022/05/12 08:17:36;;;;;;;10.73;2.50;;;14.80;65.30;;;;;;4849510;29;20054;-70
2022/05/12 08:20:06;;;;;;;11.67;2.90;;;14.90;65.00;;;;;;4842244;29;20290;-70
2022/05/12 08:22:33;;;;;;;7.77;2.23;;;15.00;65.10;;;;;;4802366;29;20311;-70
2022/05/12 08:24:59;;;;;;;8.70;2.97;;;15.10;64.80;;;;;;4848475;29;20295;-70
2022/05/12 08:27:25;;;;;;;10.27;2.50;;;14.90;63.60;;;;;;4834327;29;20796;-70
2022/05/12 08:29:52;;;;;;;7.27;2.90;;;15.00;64.90;;;;;;4836403;29;20348;-70
2022/05/12 08:32:19;;;;;;;10.70;3.20;;;15.10;65.10;;;;;;4828455;29;20064;-70
2022/05/12 08:34:45;;;;;;;6.83;2.63;;;15.30;64.30;;;;;;4852366;29;20824;-70
2022/05/12 08:37:11;;;;;;;6.97;2.57;;;15.30;63.60;;;;;;4817492;29;20327;-70
2022/05/12 08:39:37;;;;;;;10.40;2.60;;;15.30;62.90;;;;;;4816775;29;20662;-70
2022/05/12 08:42:11;;;;;;;7.13;2.50;;;15.40;63.00;;;;;;4817399;29;20338;-70
2022/05/12 08:44:39;;;;;;;9.73;3.10;;;15.50;62.50;;;;;;4819341;29;20772;-70
2022/05/12 08:47:10;;;;;;;8.57;3.13;;;15.70;63.50;;;;;;4857922;29;20283;-70
2022/05/12 08:49:41;;;;;;;8.83;2.20;;;15.70;60.50;;;;;;4843130;29;20283;-70
2022/05/12 08:52:13;;;;;;;9.87;2.27;;;15.70;60.80;;;;;;4812012;29;20305;-70
2022/05/12 08:54:42;;;;;;;15.40;3.83;;;15.70;60.50;;;;;;4834303;29;20420;-70
2022/05/12 08:57:25;;;;;;;12.13;2.87;;;15.60;61.00;;;;;;4855284;29;20291;-70
2022/05/12 08:59:51;;;;;;;10.43;7.13;;;15.70;61.90;;;;;;4805374;29;20313;-69
2022/05/12 09:02:27;;;;;;;8.27;2.17;;;15.60;60.00;;;;;;4802251;29;20307;-69
2022/05/12 09:05:09;;;;;;;7.73;2.33;;;15.70;60.00;;;;;;4827088;29;20050;-69
2022/05/12 09:07:45;;;;;;;8.90;5.13;;;15.90;59.70;;;;;;4829379;29;20287;-69
2022/05/12 09:10:19;;;;;;;8.70;2.43;;;15.90;57.90;;;;;;4801570;29;20378;-69
2022/05/12 09:13:00;;;;;;;13.93;3.30;;;15.90;58.10;;;;;;4801885;29;20738;-69
2022/05/12 09:15:38;;;;;;;7.27;2.17;;;15.90;58.10;;;;;;4828234;29;20314;-69
2022/05/12 09:18:10;;;;;;;9.83;2.93;;;16.00;58.60;;;;;;4847487;29;20296;-69
2022/05/12 09:20:36;;;;;;;6.63;2.43;;;16.10;57.00;;;;;;4807840;29;20298;-69
2022/05/12 09:23:04;;;;;;;8.37;3.13;;;16.20;58.50;;;;;;4801992;29;20351;-69
2022/05/12 09:25:32;;;;;;;7.93;2.07;;;16.20;57.60;;;;;;4830335;29;20294;-69
2022/05/12 09:27:58;;;;;;;18.37;17.03;;;16.20;57.20;;;;;;4846944;29;20598;-69
2022/05/12 09:30:36;;;;;;;5.80;1.93;;;16.10;56.70;;;;;;4815933;29;20298;-69
2022/05/12 09:33:03;;;;;;;8.43;1.73;;;16.10;56.60;;;;;;4827274;29;20069;-69
2022/05/12 09:35:30;;;;;;;6.50;5.17;;;16.20;56.50;;;;;;4834226;29;20893;-69
2022/05/12 09:37:56;;;;;;;6.50;3.03;;;16.20;55.10;;;;;;4835117;29;20311;-69
2022/05/12 09:40:37;;;;;;;7.93;1.97;;;16.00;54.10;;;;;;4860120;29;20309;-69
2022/05/12 09:43:28;;;;;;;8.03;1.30;;;16.10;55.50;;;;;;4819722;29;20311;-69
2022/05/12 09:46:07;;;;;;;4.90;1.90;;;16.20;57.00;;;;;;4816742;29;20327;-69
2022/05/12 09:48:36;;;;;;;5.70;2.80;;;16.50;56.70;;;;;;4826092;29;20367;-69
2022/05/12 09:51:29;;;;;;;10.40;5.03;;;16.50;55.10;;;;;;4842364;29;20291;-69
2022/05/12 09:54:15;;;;;;;4.80;1.87;;;16.30;53.80;;;;;;4838071;29;20292;-69
2022/05/12 09:56:46;;;;;;;2.87;1.53;;;16.40;56.40;;;;;;4831822;29;20322;-69
2022/05/12 09:59:14;;;;;;;6.63;1.90;;;16.30;55.40;;;;;;4831420;29;20315;-69
2022/05/12 10:01:51;;;;;;;7.70;1.43;;;16.40;56.30;;;;;;4831520;29;20302;-69
2022/05/12 10:10:24;;;;;;;4.87;1.27;;;16.80;55.30;;;;;;4846425;29;20046;-69
2022/05/12 10:13:04;;;;;;;3.83;1.47;;;17.00;54.00;;;;;;4801670;29;20371;-69
2022/05/12 10:15:33;;;;;;;4.70;1.23;;;16.90;55.30;;;;;;4826570;29;20307;-69
2022/05/12 10:18:28;;;;;;;6.17;3.77;;;17.00;55.50;;;;;;4836485;29;20331;-69
2022/05/12 10:20:56;;;;;;;7.85;1.77;;;17.10;53.00;;;;;;4850131;29;20329;-69
2022/05/12 10:24:03;;;;;;;5.40;1.93;;;17.20;54.10;;;;;;4847103;29;20054;-69
2022/05/12 10:26:46;;;;;;;7.13;3.57;;;17.20;54.60;;;;;;4816199;29;20663;-69
2022/05/12 10:29:34;;;;;;;4.13;1.30;;;17.20;54.50;;;;;;4823817;29;20328;-69
2022/05/12 10:32:12;;;;;;;3.63;1.73;;;17.10;52.90;;;;;;4830479;29;20299;-69
2022/05/12 10:35:04;;;;;;;3.70;1.37;;;17.00;54.40;;;;;;4814594;29;20306;-69
2022/05/12 10:37:48;;;;;;;6.07;2.83;;;17.00;54.90;;;;;;4829214;29;20386;-69
2022/05/12 10:40:43;;;;;;;14.73;13.23;;;17.20;53.20;;;;;;4838448;29;20681;-69
2022/05/12 10:43:46;;;;;;;6.17;1.50;;;17.10;52.30;;;;;;4821792;29;20402;-69
2022/05/12 10:46:36;;;;;;;6.63;1.53;;;17.10;52.90;;;;;;4829927;29;20378;-69
2022/05/12 10:49:29;;;;;;;10.13;2.20;;;17.30;53.70;;;;;;4814354;29;20373;-69
2022/05/12 10:52:24;;;;;;;6.13;2.03;;;17.60;52.10;;;;;;4847999;29;20291;-69
2022/05/12 10:55:07;;;;;;;4.15;1.58;;;17.60;52.20;;;;;;4849628;29;20621;-69
2022/05/12 10:58:02;;;;;;;6.37;1.97;;;17.70;52.20;;;;;;4851356;29;20053;-69
2022/05/12 11:00:53;;;;;;;5.35;1.38;;;17.60;52.30;;;;;;4851382;29;20983;-69
2022/05/12 11:03:24;;;;;;;5.03;2.27;;;17.60;54.40;;;;;;4867026;29;20046;-69
2022/05/12 11:05:55;;;;;;;5.27;2.77;;;17.70;52.70;;;;;;4854546;29;20378;-69
2022/05/12 11:08:47;;;;;;;11.63;10.57;;;17.70;53.40;;;;;;4867403;29;20349;-69
2022/05/12 11:11:17;;;;;;;8.37;5.70;;;17.80;50.80;;;;;;4858759;29;20642;-69
2022/05/12 11:14:07;;;;;;;5.77;1.70;;;17.70;52.10;;;;;;4854505;29;20352;-69
2022/05/12 11:16:56;;;;;;;9.63;8.60;;;17.60;51.80;;;;;;4850422;29;20315;-69
2022/05/12 11:19:24;;;;;;;5.73;2.73;;;17.50;52.40;;;;;;4855100;29;20351;-69
2022/05/12 11:21:53;;;;;;;7.23;5.00;;;17.60;52.50;;;;;;4855903;29;20303;-69
2022/05/12 11:24:37;;;;;;;7.13;5.63;;;17.60;51.70;;;;;;4840885;29;20302;-69
2022/05/12 11:27:26;;;;;;;6.75;2.75;;;17.60;52.30;;;;;;4833507;29;20287;-69
2022/05/12 11:30:12;;;;;;;5.57;1.80;;;17.50;52.80;;;;;;4852776;29;20074;-69
2022/05/12 11:32:49;;;;;;;6.37;2.17;;;17.40;51.90;;;;;;4835037;29;20286;-69
2022/05/12 11:35:48;;;;;;;4.47;2.60;;;17.10;52.50;;;;;;4836033;29;20371;-69
2022/05/12 11:38:39;;;;;;;4.83;2.40;;;17.20;53.30;;;;;;4814004;29;20339;-69
2022/05/12 11:41:08;;;;;;;30.93;5.50;;;17.40;52.80;;;;;;4828553;29;20302;-69
2022/05/12 11:46:39;;;;;;;11.50;9.63;;;17.50;49.60;;;;;;4854132;29;20299;-69
2022/05/12 11:49:19;;;;;;;5.73;1.73;;;17.40;52.10;;;;;;4824419;29;20296;-69
2022/05/12 11:51:52;;;;;;;6.27;5.03;;;17.90;51.10;;;;;;4829680;29;20295;-69
2022/05/12 11:54:38;;;;;;;10.97;10.10;;;18.30;51.10;;;;;;4833403;29;20291;-69
2022/05/12 11:57:18;;;;;;;6.63;2.30;;;18.20;46.90;;;;;;4819220;29;20628;-69
2022/05/12 11:59:47;;;;;;;4.90;3.20;;;18.30;49.70;;;;;;4852778;29;20186;-69
2022/05/12 12:02:28;;;;;;;2.67;1.40;;;18.50;48.40;;;;;;4865586;29;20310;-69
2022/05/12 12:04:58;;;;;;;10.60;9.73;;;18.60;47.60;;;;;;4848497;29;20283;-69
2022/05/12 12:07:30;;;;;;;3.83;1.63;;;18.30;48.90;;;;;;4863167;29;20718;-69
2022/05/12 12:10:04;;;;;;;5.73;3.10;;;18.20;49.50;;;;;;4841029;29;20296;-69
2022/05/12 12:12:43;;;;;;;9.05;8.15;;;18.20;50.10;;;;;;4848017;29;20316;-68
2022/05/12 12:15:11;;;;;;;9.23;8.50;;;18.20;49.00;;;;;;4817679;29;20511;-69
2022/05/12 12:17:40;;;;;;;11.60;10.80;;;18.10;48.90;;;;;;4802463;29;20376;-68
2022/05/12 12:20:32;;;;;;;6.10;3.13;;;17.80;48.50;;;;;;4812143;29;20291;-68
2022/05/12 12:23:21;;;;;;;7.70;6.70;;;17.80;49.00;;;;;;4848243;29;20408;-69
2022/05/12 12:26:02;;;;;;;6.43;2.70;;;17.90;49.70;;;;;;4819892;29;20298;-69
2022/05/12 12:28:57;;;;;;;5.63;2.03;;;17.80;50.20;;;;;;4817066;29;20695;-69
2022/05/12 12:31:45;;;;;;;7.07;6.15;;;17.70;49.10;;;;;;4817164;29;20382;-68
2022/05/12 12:34:31;;;;;;;4.57;2.00;;;17.60;49.50;;;;;;4834973;29;20061;-69
2022/05/12 12:37:03;;;;;;;9.90;9.17;;;17.80;50.10;;;;;;4833393;29;20292;-69
2022/05/12 12:39:38;;;;;;;6.00;3.30;;;17.60;49.90;;;;;;4831647;29;20467;-68
2022/05/12 12:42:24;;;;;;;;;;;17.60;51.00;;;;;;4822916;29;20384;-68
2022/05/12 12:45:05;;;;;;;4.32;1.77;;;17.70;51.70;;;;;;4803486;29;20397;-69
2022/05/12 12:48:00;;;;;;;6.73;2.60;;;17.60;50.70;;;;;;4817713;29;20050;-69
2022/05/12 12:50:40;;;;;;;6.35;1.60;;;18.00;50.50;;;;;;4816691;29;20298;-69
2022/05/12 12:53:10;;;;;;;3.73;1.70;;;17.90;49.50;;;;;;4835040;29;20050;-68
2022/05/12 12:58:39;;;;;;;6.07;5.33;;;18.40;48.70;;;;;;4829665;29;20331;-69
2022/05/12 13:01:17;;;;;;;7.65;5.18;;;18.20;47.00;;;;;;4815520;29;20795;-68
2022/05/12 13:03:54;;;;;;;7.80;6.70;;;18.10;49.80;;;;;;4826255;29;20400;-68
2022/05/12 13:06:30;;;;;;;3.97;1.80;;;18.20;48.40;;;;;;4845751;29;20642;-69
2022/05/12 13:09:03;;;;;;;7.10;3.90;;;18.60;49.80;;;;;;4816532;29;20287;-69
2022/05/12 13:11:29;;;;;;;3.03;1.70;;;18.70;47.00;;;;;;4817725;29;20290;-69
2022/05/12 13:13:56;;;;;;;3.77;1.87;;;18.50;47.90;;;;;;4847360;29;20293;-69
2022/05/12 13:16:30;;;;;;;4.63;2.20;;;18.60;48.00;;;;;;4833790;29;20817;-69
2022/05/12 13:18:56;;;;;;;7.60;6.30;;;18.50;48.00;;;;;;4856939;29;20339;-69
2022/05/12 13:21:45;;;;;;;6.00;2.23;;;18.40;48.60;;;;;;4858407;29;20310;-69
2022/05/12 13:24:13;;;;;;;6.43;2.23;;;18.50;48.40;;;;;;4848251;29;20295;-69
2022/05/12 13:26:40;;;;;;;5.37;3.90;;;18.50;48.50;;;;;;4862472;29;20851;-69
2022/05/12 13:29:08;;;;;;;9.07;8.33;;;18.60;47.80;;;;;;4848120;29;20783;-69